Time;durP1;ratioP1;P1;durP2;ratioP2;P2;SDS_P1;SDS_P2;PMS_P1;PMS_P2;Temp;Humidity;BMP_temperature;BMP_pressure;BME280_temperature;BME280_humidity;BME280_pressure;Samples;Min_cycle;Max_cycle;Signal;HPM_P1;HPM_P2
2022/10/05 00:01:46;;;;;;;;;7.00;6.33;;;;;16.03;70.29;101640.28;4954158;28;8980;-63
2022/10/05 00:04:21;;;;;;;;;10.00;8.00;;;;;16.03;70.52;101637.56;4950816;28;8945;-64
2022/10/05 00:07:18;;;;;;;;;5.67;5.67;;;;;16.04;70.48;101637.38;4949243;28;8981;-64
2022/10/05 00:09:52;;;;;;;;;7.33;7.33;;;;;16.06;70.75;101640.72;4954328;28;9013;-64
2022/10/05 00:12:20;;;;;;;;;5.00;3.67;;;;;16.01;70.31;101624.22;4949546;28;9064;-64
2022/10/05 00:14:49;;;;;;;;;6.67;5.00;;;;;16.00;70.31;101622.56;4949798;28;8920;-66
2022/10/05 00:17:22;;;;;;;;;3.00;3.00;;;;;16.00;70.48;101622.56;4951972;28;8932;-64
2022/10/05 00:19:52;;;;;;;;;6.00;3.00;;;;;16.01;70.60;101613.34;4957858;28;9712;-64
2022/10/05 00:22:28;;;;;;;;;5.25;3.50;;;;;16.00;70.16;101610.81;4950222;28;8837;-65
2022/10/05 00:24:58;;;;;;;;;1.50;1.25;;;;;16.03;70.45;101605.81;4950079;28;8867;-63
2022/10/05 00:27:31;;;;;;;;;7.00;5.00;;;;;16.02;69.72;101603.31;4949281;28;8940;-67
2022/10/05 00:30:01;;;;;;;;;3.75;3.75;;;;;15.99;70.22;101609.16;4947312;28;8818;-64
2022/10/05 00:32:27;;;;;;;;;2.75;2.75;;;;;15.92;70.11;101600.19;4950062;28;8854;-64
2022/10/05 00:34:56;;;;;;;;;2.00;2.00;;;;;15.95;70.13;101610.63;4967241;28;8839;-64
2022/10/05 00:37:22;;;;;;;;;2.00;2.00;;;;;15.97;69.62;101595.81;4936790;29;8848;-63
2022/10/05 00:39:49;;;;;;;;;2.75;2.75;;;;;15.99;69.40;101598.31;4930583;28;9646;-64
2022/10/05 00:42:31;;;;;;;;;4.00;4.00;;;;;15.94;69.80;101600.81;4948903;28;8895;-64
2022/10/05 00:45:09;;;;;;;;;2.25;1.75;;;;;15.94;69.74;101601.66;4947389;28;8876;-64
2022/10/05 00:48:03;;;;;;;;;3.00;3.00;;;;;15.94;69.26;101603.53;4949063;28;8983;-65
2022/10/05 00:50:50;;;;;;;;;3.00;3.00;;;;;15.89;69.27;101603.34;4947364;28;8984;-64
2022/10/05 00:53:22;;;;;;;;;2.00;2.00;;;;;15.91;69.38;101595.81;4949439;28;8843;-65
2022/10/05 00:56:18;;;;;;;;;3.00;2.00;;;;;15.90;69.21;101586.84;4948392;28;8833;-65
2022/10/05 00:59:09;;;;;;;;;2.00;2.00;;;;;15.93;69.23;101583.69;4947184;28;8821;-65
2022/10/05 01:01:49;;;;;;;;;3.00;2.00;;;;;15.86;69.09;101560.31;4943731;28;9024;-65
2022/10/05 01:04:18;;;;;;;;;3.00;2.00;;;;;15.90;69.05;101554.25;4946317;28;8829;-65
2022/10/05 01:07:06;;;;;;;;;1.75;1.75;;;;;15.91;68.88;101555.09;5010408;28;8835;-65
2022/10/05 01:09:57;;;;;;;;;2.50;2.50;;;;;15.95;68.78;101553.63;4949309;28;8837;-65
2022/10/05 01:12:28;;;;;;;;;2.67;2.00;;;;;15.83;68.67;101543.41;4948455;28;8830;-65
2022/10/05 01:15:15;;;;;;;;;3.25;2.00;;;;;15.88;68.60;101550.06;4949179;29;8935;-65
2022/10/05 01:18:04;;;;;;;;;1.25;1.25;;;;;15.85;68.50;101548.63;4949305;28;8884;-65
2022/10/05 01:20:38;;;;;;;;;2.00;1.00;;;;;15.89;68.55;101549.88;4963990;28;8822;-64
2022/10/05 01:23:24;;;;;;;;;1.00;1.00;;;;;15.93;68.11;101547.56;4970005;28;8857;-64
2022/10/05 01:26:05;;;;;;;;;1.00;1.00;;;;;15.95;68.00;101535.44;4947420;29;8853;-64
2022/10/05 01:28:53;;;;;;;;;1.00;1.00;;;;;15.94;68.11;101531.06;4944609;29;8912;-64
2022/10/05 01:31:44;;;;;;;;;1.00;1.00;;;;;15.93;68.14;101528.56;4947926;28;9020;-65
2022/10/05 01:34:17;;;;;;;;;1.25;1.25;;;;;15.93;67.79;101525.84;4951211;28;8949;-65
2022/10/05 01:37:03;;;;;;;;;1.00;1.00;;;;;15.92;67.70;101524.16;4948019;28;8872;-64
2022/10/05 01:39:42;;;;;;;;;0.00;0.00;;;;;15.89;68.21;101520.00;4928835;29;8906;-63
2022/10/05 01:42:30;;;;;;;;;1.00;1.00;;;;;15.87;68.09;101504.97;4943533;29;8846;-65
2022/10/05 01:45:11;;;;;;;;;1.00;1.00;;;;;15.85;67.70;101502.47;4948380;28;8978;-64
2022/10/05 01:47:43;;;;;;;;;0.25;0.25;;;;;15.83;68.18;101497.25;4943056;28;8848;-64
2022/10/05 01:50:21;;;;;;;;;1.00;1.00;;;;;15.85;68.07;101498.94;4929757;29;8837;-63
2022/10/05 01:53:27;;;;;;;;;1.00;1.00;;;;;15.90;67.85;101496.41;4939263;28;8861;-63
2022/10/05 01:56:04;;;;;;;;;5.00;2.67;;;;;15.88;67.84;101495.78;4951849;28;8896;-63
2022/10/05 01:58:50;;;;;;;;;2.25;2.25;;;;;15.80;67.76;101486.84;4943994;28;8968;-64
2022/10/05 02:01:34;;;;;;;;;2.00;1.00;;;;;15.80;67.38;101473.25;4939362;28;8865;-64
2022/10/05 02:04:18;;;;;;;;;1.00;1.00;;;;;15.84;67.39;101473.66;4945314;28;8842;-63
2022/10/05 02:07:12;;;;;;;;;2.00;2.00;;;;;15.80;67.38;101469.72;4948575;28;8963;-65
2022/10/05 02:09:48;;;;;;;;;1.00;1.00;;;;;15.84;67.48;101476.38;4946715;29;8833;-64
2022/10/05 02:12:20;;;;;;;;;2.00;2.00;;;;;15.81;67.73;101472.22;4958273;28;8846;-66
2022/10/05 02:14:54;;;;;;;;;1.00;1.00;;;;;15.82;67.76;101463.00;4948957;28;8818;-63
2022/10/05 02:17:26;;;;;;;;;4.50;3.00;;;;;15.82;67.48;101463.00;4950139;28;8853;-65
2022/10/05 02:20:01;;;;;;;;;5.33;5.00;;;;;15.78;67.96;101461.75;4951026;28;9568;-62
2022/10/05 02:22:35;;;;;;;;;3.33;3.33;;;;;15.75;68.16;101464.91;4934614;28;9012;-64
2022/10/05 02:25:07;;;;;;;;;6.00;5.67;;;;;15.67;68.54;101461.59;4950071;28;9083;-64
2022/10/05 02:27:43;;;;;;;;;5.00;5.00;;;;;15.64;68.82;101470.13;4948803;28;9054;-65
2022/10/05 02:30:10;;;;;;;;;5.33;5.00;;;;;15.68;68.72;101458.69;4943540;28;9043;-65
2022/10/05 02:32:55;;;;;;;;;3.25;3.25;;;;;15.75;68.58;101472.22;4950154;28;8936;-66
2022/10/05 02:35:25;;;;;;;;;10.00;6.33;;;;;15.71;68.99;101471.81;4950562;28;8830;-65
2022/10/05 02:38:00;;;;;;;;;2.33;2.33;;;;;15.72;68.95;101468.06;4951827;28;9029;-64
2022/10/05 02:40:53;;;;;;;;;4.33;4.33;;;;;15.72;68.74;101475.38;4950391;28;9033;-63
2022/10/05 02:43:29;;;;;;;;;5.00;5.00;;;;;15.72;69.30;101473.50;4960708;28;9004;-64
2022/10/05 02:46:08;;;;;;;;;10.33;10.33;;;;;15.71;69.04;101488.09;4950404;28;9039;-64
2022/10/05 02:48:59;;;;;;;;;7.00;5.67;;;;;15.70;69.41;101475.56;4946705;28;8990;-65
2022/10/05 02:51:30;;;;;;;;;8.33;7.67;;;;;15.69;69.48;101476.63;4930888;29;9131;-63
2022/10/05 02:54:18;;;;;;;;;6.33;6.00;;;;;15.69;69.64;101486.66;4950274;28;11246;-65
2022/10/05 02:56:48;;;;;;;;;8.00;5.33;;;;;15.71;69.26;101477.22;4950796;28;9072;-66
2022/10/05 02:59:24;;;;;;;;;9.33;8.33;;;;;15.66;69.71;101478.94;4950220;28;9019;-65
2022/10/05 03:01:56;;;;;;;;;7.33;6.33;;;;;15.67;69.44;101486.84;4953396;28;8983;-64
2022/10/05 03:04:41;;;;;;;;;5.00;5.00;;;;;15.69;69.53;101487.47;4934195;28;10226;-63
2022/10/05 03:07:12;;;;;;;;;6.00;6.00;;;;;15.68;70.02;101471.41;4949555;28;8998;-65
2022/10/05 03:09:48;;;;;;;;;8.33;7.67;;;;;15.69;69.97;101476.63;4965250;28;9003;-65
2022/10/05 03:12:50;;;;;;;;;8.00;8.00;;;;;15.68;69.72;101466.81;4950747;28;9104;-65
2022/10/05 03:15:41;;;;;;;;;7.67;7.67;;;;;15.67;69.78;101464.31;4950212;28;8989;-64
2022/10/05 03:18:15;;;;;;;;;9.67;9.67;;;;;15.67;69.89;101464.31;4951472;28;9193;-65
2022/10/05 03:20:51;;;;;;;;;8.00;8.00;;;;;15.63;70.01;101454.88;4949585;28;9245;-65
2022/10/05 03:23:56;;;;;;;;;8.33;7.00;;;;;15.62;69.86;101462.19;4969346;28;8933;-66
2022/10/05 03:26:42;;;;;;;;;9.00;8.00;;;;;15.57;70.39;101462.84;4986560;28;9150;-67
2022/10/05 03:29:30;;;;;;;;;13.00;10.67;;;;;15.58;70.57;101450.94;4936771;28;9052;-64
2022/10/05 03:32:17;;;;;;;;;7.00;7.00;;;;;15.51;70.68;101449.28;4949160;28;9075;-63
2022/10/05 03:34:47;;;;;;;;;6.00;6.00;;;;;15.47;70.47;101448.03;4954462;28;9141;-62
2022/10/05 03:37:38;;;;;;;;;5.00;5.00;;;;;15.50;70.67;101448.44;4945050;28;9109;-65
2022/10/05 03:40:23;;;;;;;;;9.67;8.00;;;;;15.52;70.75;101440.94;4947989;28;9156;-65
2022/10/05 03:42:53;;;;;;;;;9.67;9.67;;;;;15.54;70.51;101443.44;4955609;28;9202;-63
2022/10/05 03:45:24;;;;;;;;;4.33;3.67;;;;;15.52;70.89;101438.22;4952502;28;9122;-65
2022/10/05 03:47:59;;;;;;;;;9.67;7.00;;;;;15.48;70.96;101438.88;4989616;28;8999;-64
2022/10/05 03:50:39;;;;;;;;;8.00;7.00;;;;;15.53;71.02;101442.59;4949335;28;9080;-64
2022/10/05 03:53:18;;;;;;;;;8.67;8.67;;;;;15.53;70.82;101433.63;4932430;28;9088;-64
2022/10/05 03:55:45;;;;;;;;;13.00;9.00;;;;;15.51;70.68;101431.09;4935026;28;8982;-64
2022/10/05 03:58:22;;;;;;;;;10.00;10.00;;;;;15.49;70.84;101437.81;4944263;28;8952;-64
2022/10/05 04:00:54;;;;;;;;;10.00;6.67;;;;;15.51;70.71;101441.13;4951806;28;9085;-64
2022/10/05 04:03:29;;;;;;;;;5.33;5.33;;;;;15.50;70.82;101439.47;4932759;28;8940;-63
2022/10/05 04:06:48;;;;;;;;;9.00;9.00;;;;;15.54;70.62;101432.56;4914387;29;8986;-64
2022/10/05 04:09:42;;;;;;;;;8.00;8.00;;;;;15.52;70.45;101430.09;4949495;28;9076;-64
2022/10/05 04:12:20;;;;;;;;;8.33;6.33;;;;;15.53;70.26;101430.91;4948622;28;9322;-64
2022/10/05 04:14:55;;;;;;;;;8.33;7.33;;;;;15.51;70.32;101416.72;4952125;28;9069;-64
2022/10/05 04:17:45;;;;;;;;;4.33;4.33;;;;;15.57;70.17;101422.13;4932503;28;9086;-64
2022/10/05 04:20:52;;;;;;;;;10.33;8.67;;;;;15.57;70.59;101414.00;4948357;28;9660;-64
2022/10/05 04:23:28;;;;;;;;;6.00;6.00;;;;;15.56;70.02;101412.34;4917197;28;9104;-64
2022/10/05 04:26:11;;;;;;;;;7.00;7.00;;;;;15.53;70.29;101411.91;4948833;28;9708;-64
2022/10/05 04:29:06;;;;;;;;;9.67;7.67;;;;;15.55;70.00;101417.94;4958050;28;9145;-64
2022/10/05 04:31:50;;;;;;;;;10.67;8.67;;;;;15.53;70.04;101403.78;4957200;28;9092;-64
2022/10/05 04:34:37;;;;;;;;;10.00;9.00;;;;;15.52;69.94;101396.69;4929671;29;9076;-64
2022/10/05 04:37:10;;;;;;;;;5.67;3.00;;;;;15.54;70.04;101397.31;4933393;28;9200;-63
2022/10/05 04:39:52;;;;;;;;;12.67;10.33;;;;;15.53;69.62;101392.94;4948452;28;9089;-64
2022/10/05 04:42:31;;;;;;;;;9.00;7.00;;;;;15.49;69.75;101383.53;4948576;28;9340;-64
2022/10/05 04:45:06;;;;;;;;;7.00;6.33;;;;;15.51;69.57;101389.56;4933445;28;10219;-64
2022/10/05 04:47:37;;;;;;;;;4.67;4.67;;;;;15.47;69.82;101391.88;4952866;28;9083;-64
2022/10/05 04:50:06;;;;;;;;;6.00;6.00;;;;;15.43;70.01;101389.81;4964165;28;9028;-65
2022/10/05 04:52:47;;;;;;;;;9.33;9.33;;;;;15.43;70.01;101385.22;4973393;28;9130;-65
2022/10/05 04:55:46;;;;;;;;;6.33;5.00;;;;;15.51;69.70;101392.28;4957821;28;9162;-66
2022/10/05 04:58:39;;;;;;;;;4.00;3.00;;;;;15.52;69.52;101389.38;4940269;28;9059;-65
2022/10/05 05:01:44;;;;;;;;;7.33;7.33;;;;;15.45;69.50;101380.44;4912304;29;9151;-65
2022/10/05 05:04:33;;;;;;;;;6.67;6.33;;;;;15.46;69.66;101379.38;4929194;29;9282;-65
2022/10/05 05:07:14;;;;;;;;;7.33;6.67;;;;;15.45;69.56;101379.59;4932996;28;9201;-65
2022/10/05 05:10:03;;;;;;;;;5.00;5.00;;;;;15.47;69.49;101378.31;4958613;28;9163;-65
2022/10/05 05:13:08;;;;;;;;;7.00;6.33;;;;;15.42;69.39;101371.88;4940669;28;9025;-65
2022/10/05 05:16:14;;;;;;;;;8.00;8.00;;;;;15.41;69.28;101370.22;5000331;28;9001;-65
2022/10/05 05:18:49;;;;;;;;;6.00;5.00;;;;;15.42;69.12;101358.31;4896187;28;9289;-65
2022/10/05 05:21:29;;;;;;;;;6.00;4.33;;;;;15.42;69.27;101363.72;4937347;29;9120;-65
2022/10/05 05:24:15;;;;;;;;;7.00;7.00;;;;;15.40;69.03;101360.41;4947967;28;9024;-65
2022/10/05 05:27:15;;;;;;;;;4.67;4.67;;;;;15.39;68.99;101364.16;4947273;28;8915;-65
2022/10/05 05:30:03;;;;;;;;;6.33;4.33;;;;;15.39;68.90;101370.41;4943249;29;8936;-65
2022/10/05 05:32:57;;;;;;;;;6.33;6.00;;;;;15.34;68.93;101371.06;4936775;28;9070;-65
2022/10/05 05:35:52;;;;;;;;;4.33;4.33;;;;;15.37;68.63;101366.25;4947695;29;9007;-65
2022/10/05 05:38:34;;;;;;;;;4.33;3.00;;;;;15.42;68.92;101369.16;4946042;29;8994;-65
2022/10/05 05:41:09;;;;;;;;;5.33;5.33;;;;;15.38;68.68;101371.47;4947972;28;9042;-62
2022/10/05 05:43:53;;;;;;;;;3.67;3.67;;;;;15.33;68.48;101372.09;4948561;28;8999;-67
2022/10/05 05:46:29;;;;;;;;;6.00;6.00;;;;;15.28;68.47;101371.91;4937392;29;9751;-65
2022/10/05 05:49:28;;;;;;;;;3.00;3.00;;;;;15.30;68.55;101377.13;4929964;28;8960;-65
2022/10/05 05:51:58;;;;;;;;;2.00;2.00;;;;;15.32;68.21;101375.03;4943005;28;9042;-65
2022/10/05 05:54:45;;;;;;;;;1.67;1.67;;;;;15.38;68.37;101378.78;4955197;28;9655;-62
2022/10/05 05:57:20;;;;;;;;;6.00;2.67;;;;;15.38;68.40;101371.47;4956585;28;9173;-66
2022/10/05 05:59:54;;;;;;;;;2.00;2.00;;;;;15.37;67.88;101369.81;4971745;28;8947;-65
2022/10/05 06:02:30;;;;;;;;;3.67;1.33;;;;;15.29;68.01;101365.44;4939533;29;9848;-64
2022/10/05 06:05:20;;;;;;;;;1.00;1.00;;;;;15.31;67.96;101357.06;5050317;28;8916;-65
2022/10/05 06:07:51;;;;;;;;;2.00;2.00;;;;;15.32;67.78;101365.03;4988902;28;8841;-64
2022/10/05 06:10:47;;;;;;;;;2.00;1.50;;;;;15.39;67.82;101364.16;4950679;28;9188;-64
2022/10/05 06:13:41;;;;;;;;;1.25;1.00;;;;;15.37;68.17;101363.56;4950309;28;8834;-64
2022/10/05 06:16:19;;;;;;;;;1.67;1.67;;;;;15.37;67.96;101355.41;4949387;28;8822;-64
2022/10/05 06:18:56;;;;;;;;;1.33;1.33;;;;;15.41;67.80;101360.19;4948874;28;9679;-64
2022/10/05 06:21:31;;;;;;;;;1.00;1.00;;;;;15.42;67.79;101371.88;4951956;28;9018;-61
2022/10/05 06:24:16;;;;;;;;;1.00;1.00;;;;;15.44;67.72;101364.38;4950932;28;8838;-65
2022/10/05 06:27:03;;;;;;;;;0.00;0.00;;;;;15.43;67.72;101370.81;4950084;28;8903;-65
2022/10/05 06:30:13;;;;;;;;;1.25;1.25;;;;;15.39;67.35;101369.56;4947319;29;8967;-64
2022/10/05 06:32:49;;;;;;;;;1.67;1.67;;;;;15.41;67.34;101362.06;4940820;28;8907;-64
2022/10/05 06:35:57;;;;;;;;;2.25;1.00;;;;;15.40;67.81;101361.25;4952160;28;8918;-62
2022/10/05 06:39:06;;;;;;;;;1.00;1.00;;;;;15.42;67.30;101361.84;4954858;28;8884;-61
2022/10/05 06:41:47;;;;;;;;;0.00;0.00;;;;;15.46;67.58;101367.69;4971269;28;8968;-63
2022/10/05 06:44:25;;;;;;;;;1.00;1.00;;;;;15.39;67.29;101370.41;4935000;29;8925;-63
2022/10/05 06:47:50;;;;;;;;;1.00;1.00;;;;;15.46;67.69;101364.97;4938623;28;9608;-64
2022/10/05 06:50:39;;;;;;;;;1.00;1.00;;;;;15.48;67.33;101365.59;4954010;28;8864;-64
2022/10/05 06:53:56;;;;;;;;;1.25;0.25;;;;;15.49;67.50;101375.41;4950917;28;8940;-64
2022/10/05 06:56:33;;;;;;;;;1.00;1.00;;;;;15.51;67.64;101367.88;4949708;28;8830;-66
2022/10/05 06:59:26;;;;;;;;;0.75;0.75;;;;;15.57;67.66;101367.03;4948721;28;9077;-67
2022/10/05 07:02:09;;;;;;;;;0.00;0.00;;;;;15.55;67.71;101372.66;4969138;28;8841;-65
2022/10/05 07:04:48;;;;;;;;;1.67;1.67;;;;;15.54;67.70;101381.84;4949841;28;9009;-64
2022/10/05 07:07:33;;;;;;;;;1.00;1.00;;;;;15.52;68.01;101377.69;4933848;28;8921;-64
2022/10/05 07:10:31;;;;;;;;;2.00;1.33;;;;;15.49;67.84;101380.84;4949839;28;8821;-64
2022/10/05 07:13:19;;;;;;;;;2.00;2.00;;;;;15.50;68.31;101374.34;4950019;28;8922;-64
2022/10/05 07:15:57;;;;;;;;;1.00;1.00;;;;;15.47;68.06;101375.59;4934574;28;8830;-65
2022/10/05 07:18:43;;;;;;;;;2.25;1.50;;;;;15.41;68.40;101365.63;4951022;28;9082;-65
2022/10/05 07:21:42;;;;;;;;;2.00;1.75;;;;;15.44;68.64;101362.50;4949416;28;8842;-64
2022/10/05 07:24:29;;;;;;;;;1.00;1.00;;;;;15.51;68.51;101357.84;4930484;29;8950;-64
2022/10/05 07:27:16;;;;;;;;;3.00;1.75;;;;;15.50;68.33;101361.63;4933535;28;8856;-65
2022/10/05 07:30:15;;;;;;;;;2.00;2.00;;;;;15.54;68.58;101357.44;4949820;28;8830;-65
2022/10/05 07:33:12;;;;;;;;;2.00;1.00;;;;;15.59;68.45;101354.88;4953221;28;8857;-64
2022/10/05 07:38:52;;;;;;;;;2.00;2.00;;;;;15.63;68.31;101359.91;4964519;28;8849;-65
2022/10/05 07:41:43;;;;;;;;;3.50;1.75;;;;;15.59;68.65;101349.47;4949321;28;9051;-64
2022/10/05 07:44:18;;;;;;;;;1.00;1.00;;;;;15.65;68.36;101355.97;4930239;28;8872;-63
2022/10/05 07:47:07;;;;;;;;;1.00;1.00;;;;;15.58;68.67;101355.94;4966574;28;8834;-62
2022/10/05 07:49:53;;;;;;;;;2.00;1.75;;;;;15.54;69.04;101343.03;4965626;28;8952;-65
2022/10/05 07:52:29;;;;;;;;;5.75;2.75;;;;;15.58;68.87;101347.81;4965407;28;8838;-63
2022/10/05 07:55:20;;;;;;;;;4.00;2.67;;;;;15.63;68.61;101343.63;4949367;28;8995;-64
2022/10/05 07:58:06;;;;;;;;;2.50;2.00;;;;;15.61;68.54;101341.13;4971480;28;8996;-63
2022/10/05 08:01:18;;;;;;;;;2.00;2.00;;;;;15.62;68.67;101342.78;4948974;28;8948;-63
2022/10/05 08:04:16;;;;;;;;;1.00;1.00;;;;;15.62;68.92;101337.34;4948170;28;9018;-64
2022/10/05 08:06:49;;;;;;;;;2.00;2.00;;;;;15.64;68.96;101335.28;4948609;28;9032;-64
2022/10/05 08:09:25;;;;;;;;;1.00;1.00;;;;;15.68;68.55;101341.16;4950546;28;9073;-65
2022/10/05 08:12:13;;;;;;;;;1.67;1.67;;;;;15.68;68.88;101328.41;4957214;28;8953;-63
2022/10/05 08:14:51;;;;;;;;;3.67;3.67;;;;;15.58;68.79;101339.66;4949526;28;8909;-63
2022/10/05 08:17:36;;;;;;;;;2.75;2.00;;;;;15.63;68.63;101339.00;4949606;28;9763;-64
2022/10/05 08:20:15;;;;;;;;;3.00;2.00;;;;;15.71;68.68;101341.50;4949981;28;8859;-64
2022/10/05 08:22:49;;;;;;;;;2.00;2.00;;;;;15.77;68.79;101331.69;4949435;28;9057;-62
2022/10/05 08:25:37;;;;;;;;;2.00;2.00;;;;;15.76;68.62;101335.47;4950861;28;8821;-64
2022/10/05 08:28:15;;;;;;;;;2.50;2.50;;;;;15.81;68.81;101330.22;4942723;28;8931;-65
2022/10/05 08:31:00;;;;;;;;;3.50;3.00;;;;;15.81;68.86;101325.63;4949731;28;9577;-63
2022/10/05 08:33:53;;;;;;;;;3.00;2.75;;;;;15.81;68.30;101322.91;4946135;28;8833;-64
2022/10/05 08:36:32;;;;;;;;;2.25;2.25;;;;;15.85;68.62;101320.59;4939934;28;8850;-65
2022/10/05 08:39:03;;;;;;;;;3.00;3.00;;;;;15.82;68.72;101315.59;4949732;28;9529;-65
2022/10/05 08:42:03;;;;;;;;;2.50;2.50;;;;;15.77;68.38;101318.94;4949352;28;8949;-65
2022/10/05 08:44:29;;;;;;;;;3.00;3.00;;;;;15.72;68.42;101321.50;4950125;28;8953;-64
2022/10/05 08:47:17;;;;;;;;;3.00;2.75;;;;;15.72;68.69;101312.53;4954340;28;8879;-64
2022/10/05 08:50:12;;;;;;;;;4.33;4.33;;;;;15.73;68.49;101312.28;4949542;28;9691;-64
2022/10/05 08:53:01;;;;;;;;;2.00;2.00;;;;;15.77;68.60;101318.13;4949380;28;9041;-64
2022/10/05 08:55:37;;;;;;;;;4.00;4.00;;;;;15.76;69.11;101314.59;4952279;28;8822;-62
2022/10/05 08:58:29;;;;;;;;;3.00;3.00;;;;;15.79;68.77;101307.88;4948539;28;8943;-64
2022/10/05 09:01:19;;;;;;;;;2.75;2.75;;;;;15.82;68.91;101315.59;4948387;28;8845;-64
2022/10/05 09:04:07;;;;;;;;;2.25;2.25;;;;;15.86;68.96;101303.25;4964059;28;8837;-58
2022/10/05 09:07:06;;;;;;;;;5.67;4.00;;;;;15.90;68.69;101311.78;4963735;28;8810;-63
2022/10/05 09:09:54;;;;;;;;;5.00;4.33;;;;;15.92;68.69;101296.09;4949368;28;9064;-64
2022/10/05 09:12:32;;;;;;;;;5.00;4.00;;;;;15.87;68.41;101301.34;4949293;28;8897;-63
2022/10/05 09:15:25;;;;;;;;;3.00;3.00;;;;;15.87;68.44;101295.91;4952907;28;8983;-64
2022/10/05 09:18:29;;;;;;;;;4.75;4.75;;;;;15.89;68.63;101296.56;4928617;29;8882;-64
2022/10/05 09:21:02;;;;;;;;;4.00;4.00;;;;;15.79;68.41;101299.72;4939354;28;8860;-64
2022/10/05 09:23:36;;;;;;;;;6.67;6.67;;;;;15.74;68.79;101294.13;4965746;28;8986;-64
2022/10/05 09:26:27;;;;;;;;;5.00;5.00;;;;;15.83;69.21;101298.25;4950688;28;9169;-62
2022/10/05 09:29:31;;;;;;;;;3.00;3.00;;;;;15.92;68.17;101301.53;4964549;28;8877;-61
2022/10/05 09:32:20;;;;;;;;;7.00;6.33;;;;;15.86;68.23;101286.13;5053855;28;8920;-63
2022/10/05 09:35:03;;;;;;;;;3.33;3.33;;;;;15.80;67.92;101285.94;5013560;28;9038;-63
2022/10/05 09:37:48;;;;;;;;;3.33;3.33;;;;;15.90;68.20;101290.88;4967327;28;10112;-63
2022/10/05 09:43:15;;;;;;;;;5.00;5.00;;;;;15.74;68.28;101283.25;5050610;28;8974;-65
2022/10/05 09:46:16;;;;;;;;;5.33;4.00;;;;;15.84;67.89;101286.34;5053112;28;9107;-64
2022/10/05 09:49:03;;;;;;;;;4.50;4.50;;;;;15.86;67.97;101281.53;5053429;28;8899;-66
2022/10/05 09:51:52;;;;;;;;;6.00;3.00;;;;;16.00;67.69;101295.84;5043384;28;9725;-63
2022/10/05 09:54:51;;;;;;;;;2.50;2.50;;;;;16.09;67.30;101288.28;5049021;28;8933;-63
2022/10/05 09:57:43;;;;;;;;;3.25;2.75;;;;;16.03;67.54;101279.94;5033208;28;8830;-66
2022/10/05 10:00:29;;;;;;;;;5.25;5.25;;;;;16.12;67.13;101283.22;5033240;28;9521;-64
2022/10/05 10:03:14;;;;;;;;;4.00;3.33;;;;;16.05;67.21;101285.16;5033716;28;8802;-63
2022/10/05 10:05:56;;;;;;;;;3.00;3.00;;;;;15.94;66.54;101273.13;5033771;28;8964;-66
2022/10/05 10:08:44;;;;;;;;;2.50;2.00;;;;;15.97;66.52;101278.13;5033388;28;8905;-62
2022/10/05 10:11:28;;;;;;;;;1.25;1.25;;;;;16.10;66.94;101274.47;5032696;28;8846;-65
2022/10/05 10:14:19;;;;;;;;;3.00;3.00;;;;;16.06;66.23;101292.25;5032422;28;8826;-66
2022/10/05 10:16:53;;;;;;;;;4.00;4.00;;;;;15.94;66.10;101272.28;5032692;28;8999;-64
2022/10/05 10:19:39;;;;;;;;;4.00;4.00;;;;;15.94;66.19;101264.13;5032904;28;8963;-65
2022/10/05 10:22:35;;;;;;;;;2.67;2.67;;;;;16.01;65.89;101271.19;5033044;28;8822;-66
2022/10/05 10:25:42;;;;;;;;;5.25;4.75;;;;;16.03;65.88;101269.06;5029237;28;8991;-65
2022/10/05 10:28:41;;;;;;;;;3.50;3.50;;;;;16.12;65.94;101268.81;5032635;28;8838;-69
2022/10/05 10:31:25;;;;;;;;;3.00;3.00;;;;;16.12;65.67;101288.63;5032910;28;8846;-66
2022/10/05 10:34:09;;;;;;;;;3.50;3.50;;;;;16.13;65.65;101271.31;5048104;28;8838;-65
2022/10/05 10:37:03;;;;;;;;;4.67;3.33;;;;;16.09;65.47;101282.84;5032266;28;8814;-64
2022/10/05 10:39:56;;;;;;;;;3.00;3.00;;;;;16.05;65.19;101282.44;5030662;28;9039;-66
2022/10/05 10:42:34;;;;;;;;;3.33;3.33;;;;;16.06;65.30;101284.09;5031488;28;8928;-65
2022/10/05 10:45:03;;;;;;;;;4.25;2.00;;;;;16.08;65.21;101273.84;5032792;28;9757;-66
2022/10/05 10:47:58;;;;;;;;;4.50;2.50;;;;;16.10;65.55;101273.63;5032497;28;8984;-65
2022/10/05 10:50:48;;;;;;;;;3.67;3.67;;;;;16.12;65.72;101276.94;5032417;28;8826;-65
2022/10/05 10:53:49;;;;;;;;;4.67;2.00;;;;;16.12;65.45;101277.78;5032693;28;8928;-63
2022/10/05 10:56:53;;;;;;;;;3.00;3.00;;;;;16.10;66.03;101274.47;5030713;28;8985;-64
2022/10/05 10:59:52;;;;;;;;;3.00;3.00;;;;;16.06;65.72;101274.06;5032672;28;8818;-64
2022/10/05 11:02:41;;;;;;;;;4.33;3.00;;;;;16.14;65.91;101274.88;5031825;28;9667;-64
2022/10/05 11:05:30;;;;;;;;;5.25;5.25;;;;;16.07;65.89;101267.59;5032241;28;9001;-66
2022/10/05 11:08:03;;;;;;;;;13.33;8.67;;;;;15.99;66.02;101273.28;5032120;28;8830;-65
2022/10/05 11:10:57;;;;;;;;;10.00;5.67;;;;;15.98;66.12;101266.19;5029897;28;9067;-64
2022/10/05 11:13:38;;;;;;;;;9.75;6.75;;;;;16.04;66.04;101269.91;5032006;28;9803;-67
2022/10/05 11:16:33;;;;;;;;;7.67;7.00;;;;;16.04;66.58;101278.03;5032255;28;8925;-67
2022/10/05 11:19:08;;;;;;;;;3.67;3.67;;;;;16.03;66.55;101269.06;5031808;28;9178;-67
2022/10/05 11:21:59;;;;;;;;;5.67;5.33;;;;;16.09;66.40;101270.09;5032018;28;9018;-67
2022/10/05 11:24:49;;;;;;;;;5.67;5.67;;;;;16.12;66.47;101268.81;5031983;28;9758;-68
2022/10/05 11:27:58;;;;;;;;;4.50;4.50;;;;;16.16;66.56;101273.56;5020602;28;8910;-65
2022/10/05 11:30:47;;;;;;;;;7.67;7.67;;;;;16.06;67.13;101274.06;5030194;28;8952;-62
2022/10/05 11:33:35;;;;;;;;;4.00;4.00;;;;;16.13;67.15;101276.75;5031961;28;9135;-67
2022/10/05 11:36:46;;;;;;;;;6.00;5.67;;;;;16.15;67.60;101262.94;5029130;28;8956;-64
2022/10/05 11:39:39;;;;;;;;;4.33;4.33;;;;;16.23;67.27;101268.09;5020518;28;9042;-63
2022/10/05 11:42:27;;;;;;;;;6.67;6.67;;;;;16.26;67.18;101259.50;5031750;28;8978;-62
2022/10/05 11:45:20;;;;;;;;;5.00;5.00;;;;;16.26;67.10;101244.03;5031994;28;9087;-62
2022/10/05 11:48:15;;;;;;;;;5.33;5.33;;;;;16.25;67.16;101258.69;5030731;28;8974;-64
2022/10/05 11:51:02;;;;;;;;;8.67;7.67;;;;;16.24;67.54;101243.41;5023812;28;9022;-64
2022/10/05 11:53:39;;;;;;;;;10.00;9.00;;;;;16.18;67.51;101244.31;5012092;28;9151;-65
2022/10/05 11:56:30;;;;;;;;;9.00;8.00;;;;;16.10;67.52;101236.44;5016874;28;8984;-64
2022/10/05 11:59:20;;;;;;;;;4.33;4.33;;;;;16.18;67.58;101241.59;5031121;28;9253;-67
2022/10/05 12:02:15;;;;;;;;;6.67;6.33;;;;;16.17;67.54;101237.22;5031102;28;8913;-66
2022/10/05 12:05:01;;;;;;;;;7.00;7.00;;;;;16.20;67.31;101230.50;5031277;28;9056;-65
2022/10/05 12:07:58;;;;;;;;;8.00;7.00;;;;;16.23;67.63;101225.47;5023810;28;9829;-64
2022/10/05 12:10:42;;;;;;;;;7.67;6.00;;;;;16.22;67.51;101221.09;5031062;28;9003;-67
2022/10/05 12:13:18;;;;;;;;;12.33;11.00;;;;;16.19;68.02;101229.69;5031167;28;9060;-67
2022/10/05 12:16:04;;;;;;;;;8.67;8.67;;;;;16.19;67.68;101223.41;5030895;28;9068;-64
2022/10/05 12:18:31;;;;;;;;;9.67;8.33;;;;;16.12;68.15;101228.88;5030665;28;9232;-65
2022/10/05 12:21:03;;;;;;;;;9.00;9.00;;;;;16.15;67.85;101219.47;5030862;28;9033;-63
2022/10/05 12:23:40;;;;;;;;;7.00;7.00;;;;;16.27;67.61;101220.41;5028321;28;8991;-61
2022/10/05 12:26:21;;;;;;;;;9.33;7.00;;;;;16.29;67.64;101202.84;5030957;28;9609;-64
2022/10/05 12:29:00;;;;;;;;;7.33;7.33;;;;;16.27;67.19;101199.50;5030902;28;8994;-67
2022/10/05 12:31:40;;;;;;;;;7.00;6.00;;;;;16.29;67.08;101197.41;5030153;28;8937;-65
2022/10/05 12:34:27;;;;;;;;;9.33;9.00;;;;;16.39;66.79;101201.50;5030510;28;9660;-63
2022/10/05 12:37:06;;;;;;;;;12.33;9.33;;;;;16.42;66.96;101206.50;5010756;28;8994;-64
2022/10/05 12:39:49;;;;;;;;;9.67;9.67;;;;;16.46;67.26;101205.81;5016084;28;9036;-65
2022/10/05 12:42:28;;;;;;;;;9.33;8.33;;;;;16.42;67.01;101201.88;5030324;28;8924;-66
2022/10/05 12:45:19;;;;;;;;;9.00;9.00;;;;;16.43;66.80;101192.69;5017618;28;9920;-66
2022/10/05 12:48:31;;;;;;;;;9.67;7.67;;;;;16.45;66.90;101211.50;5025061;28;9646;-66
2022/10/05 12:51:07;;;;;;;;;10.00;10.00;;;;;16.42;66.58;101211.94;4991066;28;8950;-65
2022/10/05 12:54:02;;;;;;;;;7.00;7.00;;;;;16.50;66.68;101203.50;5010387;28;8993;-67
2022/10/05 12:56:41;;;;;;;;;10.75;10.00;;;;;16.53;66.50;101203.06;5024936;28;8929;-65
2022/10/05 12:59:22;;;;;;;;;8.67;6.67;;;;;16.53;66.64;101194.91;5028057;28;8822;-65